AirNav   TITAN Aviation Fuels
 
 1372 users online  

0IL7 Davis RLA Airport
Hammond, Illinois, USA


FAA INFORMATION EFFECTIVE 01 DECEMBER 2022

Location

FAA Identifier: 0IL7
Lat/Long: 39-46-58.5000N 088-32-48.1500W
39-46.975000N 088-32.802500W
39.7829167,-88.5467083
(estimated)
Elevation: 682 ft. / 208 m (estimated)
From city: 2 miles ESE of HAMMOND, IL
Time zone: UTC -6 (UTC -5 during Daylight Saving Time)
Zip code: 61929

Airport Operations

Airport use: Private use. Permission required prior to landing
Activation date: 11/2021
Control tower: no
ARTCC: CHICAGO CENTER
FSS: SAINT LOUIS FLIGHT SERVICE STATION
Attendance: 
Segmented circle: no

Airport Communications

WX ASOS at DEC (15 nm W): PHONE 217-429-0052
WX ASOS at CMI (20 nm NE): PHONE 217-355-4072

Nearby radio navigation aids

VOR radial/distance  VOR name  Freq  Var
AXCr076/14.5ADDERS VORTAC117.2003E
CMIr217/19.6CHAMPAIGN VORTAC110.0003E

 
NDB name  Hdg/Dist  Freq  Var  ID
SHELBYVILLE033/26.436502WSYZ ... -.-- --..

Airport Services

Runway Information

Runway 18/36

Dimensions: 2024 x 100 ft. / 617 x 30 m
Surface: turf
RUNWAY 18  RUNWAY 36
Latitude: 39-47.141667N39-46.808333N
Longitude: 088-32.803333W088-32.801667W
Traffic pattern: leftleft

Airport Ownership and Management from official FAA records

Ownership: Privately-owned
Owner: JEFF AND RHONDA DAVIS
2627 COUNTY ROAD 1400 EAST
LOVINGTON, IL 61937
Phone 217-962-0125
Manager: JEFF AND RHONDA DAVIS
2627 COUNTY ROAD 1400 EAST
LOVINGTON, IL 61937
Phone 217-962-0125

Instrument Procedures

There are no published instrument procedures at 0IL7.

Some nearby airports with instrument procedures:

KDEC - Decatur Airport (15 nm W)
KCMI - University of Illinois/Willard Airport (20 nm NE)
KMTO - Coles County Memorial Airport (22 nm SE)
2H0 - Shelby County Airport (26 nm SW)
C16 - Frasca Field Airport (27 nm NE)
 
Loc | Ops | Rwys | IFR | FBO | Links
Com | Nav | Svcs | Stats | Notes
Aerial photo
No photo
 
Airport distance calculator
Flying to Davis RLA Airport? Find the distance to fly.

From to 0IL7

Sunrise and sunset
Times for 07-Dec-2022
 Local
(UTC-6)
 Zulu
(UTC)
Morning civil twilight06:3312:33
Sunrise07:0313:03
Sunset16:2822:28
Evening civil twilight16:5922:59

Current date and time
Zulu (UTC)  07-Dec-2022 14:59:28
Local (UTC-6)  07-Dec-2022 08:59:28
 
METAR
KDEC 
14nm W 
071454Z 04006KT 4SM BR OVC003 05/05 A3025 RMK AO2 SLP247 T00500050 51015
KCMI 
20nm NE 
071453Z 35004KT 1 1/2SM BR OVC003 06/05 A3023 RMK AO2 SFC VIS 2 1/2 SLP241 T00610050 51022
KMTO 
23nm SE 
071453Z AUTO 35003KT 1 3/4SM BR OVC011 04/04 A3022 RMK AO2 SLP239 T00440039 51025
TAF
KDEC 
14nm W 
071403Z 0714/0812 36003KT 1/4SM FG OVC002 FM071500 VRB03KT 1SM BR BKN002 FM071600 VRB03KT 3SM BR BKN008 FM071800 33005KT P6SM BKN018 FM080000 04003KT P6SM OVC012 FM080800 06008KT P6SM OVC007
KCMI 
20nm NE 
071327Z 0713/0812 36004KT 4SM BR OVC010 TEMPO 0713/0714 2SM BR OVC005 FM071500 VRB03KT 6SM BR BKN007 FM071800 33005KT P6SM BKN018 FM080000 04003KT P6SM OVC012 FM080800 06008KT P6SM OVC007
NOTAMs
Click for the latest NOTAMs
NOTAMs are issued by the DoD/FAA and will open in a separate window not controlled by AirNav.

 

 
 

Would you like to see your business listed on this page?

 If your business provides an interesting product or service to pilots, flight crews, aircraft, or users of the Davis RLA Airport, you should consider listing it here.  To start the listing process, click on the button below
 
Add a business
 

Other Pages about Davis RLA Airport

Update a link
 
Copyright © AirNav, LLC. All rights reserved. Privacy Policy  Contact